createdAt,value
2019-03-17T00:00:43.265Z,9.71
2019-03-17T00:01:43.254Z,9.65
2019-03-17T00:02:43.238Z,9.70
2019-03-17T00:03:43.219Z,9.60
2019-03-17T00:04:43.226Z,9.70
2019-03-17T00:05:43.351Z,9.59
2019-03-17T00:06:43.262Z,9.60
2019-03-17T00:07:43.174Z,9.60
2019-03-17T00:08:43.169Z,9.56
2019-03-17T00:09:43.159Z,9.70
2019-03-17T00:10:43.187Z,9.62
2019-03-17T00:11:43.155Z,9.62
2019-03-17T00:12:43.135Z,9.62
2019-03-17T00:13:43.189Z,9.63
2019-03-17T00:14:43.156Z,9.60
2019-03-17T00:15:43.090Z,9.67
2019-03-17T00:16:43.091Z,9.74
2019-03-17T00:17:43.125Z,9.60
2019-03-17T00:18:43.094Z,9.74
2019-03-17T00:19:43.048Z,9.77
2019-03-17T00:20:43.088Z,9.68
2019-03-17T00:21:43.022Z,9.77
2019-03-17T00:22:43.032Z,9.63
2019-03-17T00:23:43.001Z,9.80
2019-03-17T00:24:43.015Z,9.78
2019-03-17T00:25:42.981Z,9.75
2019-03-17T00:26:42.990Z,9.74
2019-03-17T00:27:42.977Z,9.78
2019-03-17T00:28:44.382Z,9.75
2019-03-17T00:29:43.516Z,9.74
2019-03-17T00:30:42.944Z,9.67
2019-03-17T00:31:42.920Z,9.73
2019-03-17T00:32:43.004Z,9.77
2019-03-17T00:33:42.912Z,9.65
2019-03-17T00:34:44.632Z,9.75
2019-03-17T00:35:42.940Z,9.74
2019-03-17T00:36:42.865Z,9.70
2019-03-17T00:37:42.858Z,9.73
2019-03-17T00:38:42.843Z,9.77
2019-03-17T00:39:42.846Z,9.85
2019-03-17T00:40:42.843Z,9.65
2019-03-17T00:41:42.823Z,9.74
2019-03-17T00:42:42.832Z,9.75
2019-03-17T00:43:42.796Z,9.78
2019-03-17T00:44:42.776Z,9.83
2019-03-17T00:45:42.786Z,9.70
2019-03-17T00:46:42.766Z,9.71
2019-03-17T00:47:42.812Z,9.74
2019-03-17T00:48:42.857Z,9.70
2019-03-17T00:49:42.755Z,9.74
2019-03-17T00:50:42.717Z,9.71
2019-03-17T00:51:42.726Z,9.68
2019-03-17T00:52:42.721Z,9.74
2019-03-17T00:53:42.690Z,9.81
2019-03-17T00:54:42.668Z,9.95
2019-03-17T00:55:42.661Z,9.86
2019-03-17T00:56:42.699Z,9.74
2019-03-17T00:57:42.692Z,9.83
2019-03-17T00:58:42.671Z,9.71
2019-03-17T00:59:42.614Z,9.85
2019-03-17T01:00:42.634Z,9.75
2019-03-17T01:01:42.592Z,9.74
2019-03-17T01:02:42.598Z,9.78
2019-03-17T01:03:42.570Z,9.67
2019-03-17T01:04:42.568Z,9.71
2019-03-17T01:05:42.566Z,9.75
2019-03-17T01:06:42.570Z,9.70
2019-03-17T01:07:42.556Z,9.85
2019-03-17T01:08:42.526Z,9.78
2019-03-17T01:09:42.516Z,9.67
2019-03-17T01:10:42.508Z,9.78
2019-03-17T01:11:42.516Z,9.75
2019-03-17T01:12:44.792Z,9.65
2019-03-17T01:13:42.478Z,9.67
2019-03-17T01:14:42.460Z,9.62
2019-03-17T01:15:42.464Z,9.67
2019-03-17T01:16:42.422Z,9.63
2019-03-17T01:17:42.460Z,9.60
2019-03-17T01:18:42.411Z,9.52
2019-03-17T01:19:42.412Z,9.59
2019-03-17T01:20:42.412Z,9.60
2019-03-17T01:21:42.403Z,9.59
2019-03-17T01:22:42.373Z,9.59
2019-03-17T01:23:42.366Z,9.59
2019-03-17T01:24:42.344Z,9.60
2019-03-17T01:25:42.335Z,9.55
2019-03-17T01:26:42.331Z,9.60
2019-03-17T01:27:42.335Z,9.62
2019-03-17T01:28:42.323Z,9.62
2019-03-17T01:29:42.283Z,9.68
2019-03-17T01:30:42.277Z,9.74
2019-03-17T01:31:42.277Z,9.68
2019-03-17T01:32:42.248Z,9.71
2019-03-17T01:33:42.268Z,9.73
2019-03-17T01:34:42.236Z,9.68
2019-03-17T01:35:42.220Z,9.77
2019-03-17T01:36:42.206Z,9.83
2019-03-17T01:37:42.211Z,9.73
2019-03-17T01:38:42.183Z,9.74
2019-03-17T01:39:42.190Z,9.68
2019-03-17T01:40:42.169Z,9.78
2019-03-17T01:41:42.156Z,9.78
2019-03-17T01:42:42.143Z,9.68
2019-03-17T01:43:42.153Z,9.77
2019-03-17T01:44:42.157Z,9.67
2019-03-17T01:45:42.130Z,9.68
2019-03-17T01:46:42.106Z,9.71
2019-03-17T01:47:42.153Z,9.73
2019-03-17T01:48:42.079Z,9.71
2019-03-17T01:49:42.068Z,9.70
2019-03-17T01:50:42.100Z,9.71
2019-03-17T01:51:42.058Z,9.71
2019-03-17T01:52:42.062Z,9.68
2019-03-17T01:53:42.063Z,9.74
2019-03-17T01:54:42.021Z,9.71
2019-03-17T01:55:42.015Z,9.73
2019-03-17T01:56:42.025Z,9.67
2019-03-17T01:57:42.003Z,9.71
2019-03-17T01:58:41.985Z,9.80
2019-03-17T01:59:41.966Z,9.91
2019-03-17T02:00:41.961Z,9.85
2019-03-17T02:01:42.026Z,9.83
2019-03-17T02:02:41.935Z,9.91
2019-03-17T02:03:41.930Z,9.81
2019-03-17T02:04:41.932Z,9.91
2019-03-17T02:05:41.901Z,9.88
2019-03-17T02:06:41.922Z,9.89
2019-03-17T02:07:41.918Z,9.89
2019-03-17T02:08:41.871Z,9.99
2019-03-17T02:09:41.866Z,9.81
2019-03-17T02:10:41.848Z,9.80
2019-03-17T02:11:41.850Z,9.70
2019-03-17T02:12:41.867Z,9.81
2019-03-17T02:13:41.839Z,9.78
2019-03-17T02:14:41.804Z,9.80
2019-03-17T02:15:41.807Z,9.77
2019-03-17T02:16:41.780Z,9.83
2019-03-17T02:17:41.801Z,9.85
2019-03-17T02:18:41.807Z,9.81
2019-03-17T02:19:41.742Z,9.80
2019-03-17T02:20:41.741Z,9.83
2019-03-17T02:21:41.735Z,9.83
2019-03-17T02:22:41.725Z,9.80
2019-03-17T02:23:41.716Z,9.74
2019-03-17T02:24:41.696Z,9.71
2019-03-17T02:25:41.685Z,9.89
2019-03-17T02:26:41.680Z,9.88
2019-03-17T02:27:41.765Z,9.85
2019-03-17T02:28:41.697Z,9.86
2019-03-17T02:29:41.667Z,9.93
2019-03-17T02:30:41.672Z,9.85
2019-03-17T02:31:41.615Z,9.83
2019-03-17T02:32:41.613Z,9.89
2019-03-17T02:33:41.625Z,9.92
2019-03-17T02:34:41.639Z,9.88
2019-03-17T02:35:41.588Z,9.86
2019-03-17T02:36:41.568Z,9.86
2019-03-17T02:37:41.561Z,9.88
2019-03-17T02:38:41.552Z,9.93
2019-03-17T02:39:41.572Z,9.92
2019-03-17T02:40:41.552Z,9.91
2019-03-17T02:41:41.512Z,9.98
2019-03-17T02:42:41.502Z,9.88
2019-03-17T02:43:41.496Z,9.98
2019-03-17T02:44:41.493Z,10.02
2019-03-17T02:45:41.494Z,9.96
2019-03-17T02:46:41.480Z,9.98
2019-03-17T02:47:41.464Z,9.98
2019-03-17T02:48:41.458Z,10.04
2019-03-17T02:49:41.504Z,10.01
2019-03-17T02:50:41.446Z,9.96
2019-03-17T02:51:41.422Z,9.99
2019-03-17T02:52:41.392Z,10.02
2019-03-17T02:53:41.397Z,9.99
2019-03-17T02:54:41.369Z,9.98
2019-03-17T02:55:41.354Z,9.88
2019-03-17T02:56:41.376Z,9.92
2019-03-17T02:57:41.375Z,9.88
2019-03-17T02:58:41.332Z,9.91
2019-03-17T02:59:41.343Z,9.83
2019-03-17T03:00:41.298Z,9.88
2019-03-17T03:01:41.297Z,9.83
2019-03-17T03:02:41.310Z,9.93
2019-03-17T03:03:41.278Z,9.95
2019-03-17T03:04:41.270Z,9.98
2019-03-17T03:05:54.081Z,10.01
2019-03-17T03:06:42.255Z,9.95
2019-03-17T03:07:41.250Z,9.88
2019-03-17T03:08:41.275Z,9.95
2019-03-17T03:09:41.234Z,9.85
2019-03-17T03:10:41.205Z,9.91
2019-03-17T03:11:41.221Z,9.93
2019-03-17T03:12:41.178Z,9.96
2019-03-17T03:13:41.194Z,9.91
2019-03-17T03:14:41.179Z,9.93
2019-03-17T03:15:41.139Z,10.01
2019-03-17T03:16:41.162Z,9.95
2019-03-17T03:17:41.129Z,9.99
2019-03-17T03:18:41.115Z,9.95
2019-03-17T03:19:41.165Z,9.95
2019-03-17T03:20:41.108Z,9.93
2019-03-17T03:21:41.085Z,9.93
2019-03-17T03:22:41.166Z,9.93
2019-03-17T03:23:41.079Z,9.98
2019-03-17T03:24:41.087Z,9.95
2019-03-17T03:25:41.040Z,9.89
2019-03-17T03:26:41.027Z,9.92
2019-03-17T03:27:41.028Z,9.96
2019-03-17T03:28:41.026Z,9.89
2019-03-17T03:29:41.023Z,9.85
2019-03-17T03:30:41.041Z,9.89
2019-03-17T03:31:41.001Z,9.80
2019-03-17T03:32:40.982Z,9.85
2019-03-17T03:33:41.003Z,9.80
2019-03-17T03:34:41.022Z,9.77
2019-03-17T03:35:40.958Z,9.89
2019-03-17T03:36:41.011Z,9.80
2019-03-17T03:37:40.919Z,9.70
2019-03-17T03:38:40.986Z,9.77
2019-03-17T03:39:40.933Z,9.73
2019-03-17T03:40:40.893Z,9.70
2019-03-17T03:41:40.863Z,9.68
2019-03-17T03:42:40.874Z,9.75
2019-03-17T03:43:40.860Z,9.77
2019-03-17T03:44:40.843Z,9.83
2019-03-17T03:45:40.834Z,9.80
2019-03-17T03:46:40.807Z,9.89
2019-03-17T03:47:40.825Z,9.80
2019-03-17T03:48:40.801Z,9.89
2019-03-17T03:49:40.799Z,9.89
2019-03-17T03:50:40.785Z,9.83
2019-03-17T03:51:40.772Z,9.80
2019-03-17T03:52:40.753Z,9.88
2019-03-17T03:53:40.943Z,9.83
2019-03-17T03:54:40.718Z,9.86
2019-03-17T03:55:42.409Z,9.81
2019-03-17T03:56:40.715Z,9.73
2019-03-17T03:57:40.696Z,9.70
2019-03-17T03:58:40.694Z,9.77
2019-03-17T03:59:40.661Z,9.75
2019-03-17T04:00:40.657Z,9.70
2019-03-17T04:01:40.645Z,9.74
2019-03-17T04:02:40.666Z,9.62
2019-03-17T04:03:40.659Z,9.62
2019-03-17T04:04:40.612Z,9.68
2019-03-17T04:05:40.595Z,9.53
2019-03-17T04:06:40.601Z,9.55
2019-03-17T04:07:40.611Z,9.55
2019-03-17T04:08:40.574Z,9.63
2019-03-17T04:09:40.706Z,9.62
2019-03-17T04:10:40.552Z,9.52
2019-03-17T04:11:40.593Z,9.62
2019-03-17T04:12:40.530Z,9.60
2019-03-17T04:13:40.585Z,9.53
2019-03-17T04:14:40.531Z,9.56
2019-03-17T04:15:40.494Z,9.50
2019-03-17T04:16:40.491Z,9.52
2019-03-17T04:17:40.472Z,9.65
2019-03-17T04:18:40.459Z,9.63
2019-03-17T04:19:40.453Z,9.50
2019-03-17T04:20:40.465Z,9.60
2019-03-17T04:21:40.465Z,9.50
2019-03-17T04:22:40.504Z,9.53
2019-03-17T04:23:40.418Z,9.59
2019-03-17T04:24:40.402Z,9.63
2019-03-17T04:25:40.401Z,9.71
2019-03-17T04:26:40.388Z,9.67
2019-03-17T04:27:40.362Z,9.73
2019-03-17T04:28:40.366Z,9.67
2019-03-17T04:29:40.342Z,9.71
2019-03-17T04:30:40.361Z,9.68
2019-03-17T04:31:40.343Z,9.65
2019-03-17T04:32:40.334Z,9.71
2019-03-17T04:33:40.311Z,9.71
2019-03-17T04:34:40.292Z,9.78
2019-03-17T04:35:40.281Z,9.75
2019-03-17T04:36:40.837Z,9.78
2019-03-17T04:37:40.258Z,9.73
2019-03-17T04:38:43.589Z,9.71
2019-03-17T04:39:40.246Z,9.86
2019-03-17T04:40:40.231Z,9.86
2019-03-17T04:41:40.237Z,9.73
2019-03-17T04:42:40.428Z,9.85
2019-03-17T04:43:40.192Z,9.80
2019-03-17T04:44:40.185Z,9.91
2019-03-17T04:45:40.172Z,9.85
2019-03-17T04:46:40.180Z,9.81
2019-03-17T04:47:40.995Z,9.80
2019-03-17T04:48:40.159Z,9.88
2019-03-17T04:49:40.136Z,9.91
2019-03-17T04:50:40.112Z,9.86
2019-03-17T04:51:40.133Z,9.85
2019-03-17T04:52:40.109Z,9.96
2019-03-17T04:53:40.084Z,9.86
2019-03-17T04:54:40.075Z,9.93
2019-03-17T04:55:40.079Z,9.96
2019-03-17T04:56:40.054Z,9.95
2019-03-17T04:57:40.087Z,9.91
2019-03-17T04:58:40.023Z,9.95
2019-03-17T04:59:40.033Z,9.92
2019-03-17T05:00:40.011Z,9.92
2019-03-17T05:01:40.022Z,9.91
2019-03-17T05:02:40.028Z,9.95
2019-03-17T05:03:39.972Z,9.99
2019-03-17T05:04:39.967Z,9.98
2019-03-17T05:05:40.009Z,9.93
2019-03-17T05:06:51.567Z,9.93
2019-03-17T05:07:41.809Z,9.96
2019-03-17T05:08:39.918Z,9.89
2019-03-17T05:09:39.920Z,9.92
2019-03-17T05:10:39.913Z,9.96
2019-03-17T05:11:39.890Z,9.98
2019-03-17T05:12:39.880Z,9.95
2019-03-17T05:13:39.902Z,9.91
2019-03-17T05:14:39.876Z,9.86
2019-03-17T05:15:39.840Z,9.89
2019-03-17T05:16:39.844Z,9.80
2019-03-17T05:17:39.825Z,9.80
2019-03-17T05:18:39.826Z,9.77
2019-03-17T05:19:39.805Z,9.65
2019-03-17T05:20:39.801Z,9.60
2019-03-17T05:21:39.851Z,9.59
2019-03-17T05:22:39.776Z,9.56
2019-03-17T05:23:39.796Z,9.48
2019-03-17T05:24:39.758Z,9.55
2019-03-17T05:25:39.733Z,9.44
2019-03-17T05:26:39.721Z,9.42
2019-03-17T05:27:39.725Z,9.38
2019-03-17T05:28:39.707Z,9.35
2019-03-17T05:29:39.721Z,9.38
2019-03-17T05:30:39.721Z,9.35
2019-03-17T05:31:39.702Z,9.24
2019-03-17T05:32:39.663Z,9.31
2019-03-17T05:33:39.671Z,9.17
2019-03-17T05:34:39.640Z,9.19
2019-03-17T05:35:39.648Z,9.20
2019-03-17T05:36:39.640Z,9.16
2019-03-17T05:37:39.640Z,9.08
2019-03-17T05:38:39.599Z,9.12
2019-03-17T05:39:39.746Z,9.13
2019-03-17T05:40:39.623Z,9.10
2019-03-17T05:41:39.568Z,9.12
2019-03-17T05:42:40.944Z,9.08
2019-03-17T05:43:39.565Z,9.01
2019-03-17T05:44:39.533Z,8.98
2019-03-17T05:45:39.521Z,8.89
2019-03-17T05:46:39.554Z,8.96
2019-03-17T05:47:39.531Z,8.91
2019-03-17T05:48:39.498Z,8.96
2019-03-17T05:49:39.520Z,8.89
2019-03-17T05:50:39.461Z,8.82
2019-03-17T05:51:39.462Z,8.80
2019-03-17T05:52:39.467Z,8.76
2019-03-17T05:53:40.488Z,8.78
2019-03-17T05:54:39.451Z,8.76
2019-03-17T05:55:39.415Z,8.76
2019-03-17T05:56:39.396Z,8.79
2019-03-17T05:57:39.444Z,8.70
2019-03-17T05:58:39.378Z,8.64
2019-03-17T05:59:39.990Z,8.67
2019-03-17T06:00:39.372Z,8.68
2019-03-17T06:01:39.350Z,8.68
2019-03-17T06:02:39.335Z,8.67
2019-03-17T06:03:39.348Z,8.64
2019-03-17T06:04:39.320Z,8.63
2019-03-17T06:05:39.334Z,8.68
2019-03-17T06:06:39.337Z,8.75
2019-03-17T06:07:39.286Z,8.64
2019-03-17T06:08:39.326Z,8.65
2019-03-17T06:09:39.258Z,8.67
2019-03-17T06:10:39.268Z,8.63
2019-03-17T06:11:39.258Z,8.68
2019-03-17T06:12:39.242Z,8.60
2019-03-17T06:13:39.260Z,8.65
2019-03-17T06:14:39.272Z,8.64
2019-03-17T06:15:39.199Z,8.68
2019-03-17T06:16:39.190Z,8.78
2019-03-17T06:17:39.188Z,8.67
2019-03-17T06:18:39.184Z,8.76
2019-03-17T06:19:39.155Z,8.67
2019-03-17T06:20:39.160Z,8.65
2019-03-17T06:21:39.134Z,8.71
2019-03-17T06:22:39.143Z,8.68
2019-03-17T06:23:39.107Z,8.67
2019-03-17T06:24:39.115Z,8.73
2019-03-17T06:25:39.127Z,8.73
2019-03-17T06:26:39.078Z,8.64
2019-03-17T06:27:39.080Z,8.68
2019-03-17T06:28:39.074Z,8.67
2019-03-17T06:29:39.060Z,8.65
2019-03-17T06:30:39.062Z,8.63
2019-03-17T06:31:39.070Z,8.58
2019-03-17T06:32:39.003Z,8.54
2019-03-17T06:33:39.011Z,8.50
2019-03-17T06:34:38.993Z,8.57
2019-03-17T06:35:38.985Z,8.50
2019-03-17T06:36:39.020Z,8.63
2019-03-17T06:37:38.959Z,8.61
2019-03-17T06:38:38.945Z,8.60
2019-03-17T06:39:38.948Z,8.57
2019-03-17T06:40:38.920Z,8.55
2019-03-17T06:41:38.925Z,8.49
2019-03-17T06:42:38.926Z,8.46
2019-03-17T06:43:38.884Z,8.45
2019-03-17T06:44:38.939Z,8.55
2019-03-17T06:45:38.890Z,8.54
2019-03-17T06:46:38.856Z,8.52
2019-03-17T06:47:38.874Z,8.52
2019-03-17T06:48:38.840Z,8.50
2019-03-17T06:49:38.896Z,8.58
2019-03-17T06:50:38.822Z,7.95
2019-03-17T06:51:38.810Z,7.45
2019-03-17T06:52:38.887Z,7.09
2019-03-17T06:53:38.805Z,6.61
2019-03-17T06:54:38.770Z,6.46
2019-03-17T06:55:38.753Z,6.53
2019-03-17T06:56:38.749Z,6.43
2019-03-17T06:57:38.736Z,6.33
2019-03-17T06:58:38.733Z,6.30
2019-03-17T06:59:38.740Z,6.24
2019-03-17T07:00:38.699Z,6.11
2019-03-17T07:01:38.693Z,6.14
2019-03-17T07:02:38.719Z,6.11
2019-03-17T07:03:38.666Z,6.01
2019-03-17T07:04:38.669Z,6.11
2019-03-17T07:05:38.673Z,6.10
2019-03-17T07:06:38.674Z,6.06
2019-03-17T07:07:43.828Z,6.13
2019-03-17T07:08:39.618Z,6.06
2019-03-17T07:09:38.617Z,6.10
2019-03-17T07:10:38.612Z,6.02
2019-03-17T07:11:38.598Z,5.95
2019-03-17T07:12:38.568Z,5.98
2019-03-17T07:13:38.584Z,5.93
2019-03-17T07:14:38.545Z,6.02
2019-03-17T07:15:38.537Z,6.08
2019-03-17T07:16:38.552Z,6.05
2019-03-17T07:17:38.563Z,6.01
2019-03-17T07:18:38.502Z,5.93
2019-03-17T07:19:38.506Z,5.87
2019-03-17T07:20:38.507Z,5.90
2019-03-17T07:21:38.520Z,5.84
2019-03-17T07:22:38.471Z,5.73
2019-03-17T07:23:38.446Z,5.80
2019-03-17T07:24:38.436Z,5.77
2019-03-17T07:25:38.433Z,5.75
2019-03-17T07:26:38.462Z,5.66
2019-03-17T07:27:38.412Z,5.58
2019-03-17T07:28:38.395Z,5.60
2019-03-17T07:29:38.404Z,5.59
2019-03-17T07:30:38.391Z,5.60
2019-03-17T07:31:38.374Z,5.55
2019-03-17T07:32:38.379Z,5.45
2019-03-17T07:33:38.342Z,5.48
2019-03-17T07:34:38.341Z,5.44
2019-03-17T07:35:38.315Z,5.45
2019-03-17T07:36:38.305Z,5.42
2019-03-17T07:37:38.321Z,5.37
2019-03-17T07:38:38.297Z,5.37
2019-03-17T07:39:38.279Z,5.35
2019-03-17T07:40:38.284Z,5.30
2019-03-17T07:41:38.254Z,5.30
2019-03-17T07:42:38.279Z,5.30
2019-03-17T07:43:38.252Z,5.30
2019-03-17T07:44:38.231Z,5.23
2019-03-17T07:45:38.213Z,5.26
2019-03-17T07:46:38.232Z,5.27
2019-03-17T07:47:38.191Z,5.40
2019-03-17T07:48:38.199Z,5.32
2019-03-17T07:49:38.184Z,5.32
2019-03-17T07:50:38.182Z,5.41
2019-03-17T07:51:38.147Z,5.37
2019-03-17T07:52:38.166Z,5.35
2019-03-17T07:53:38.165Z,5.33
2019-03-17T07:54:38.122Z,5.40
2019-03-17T07:55:38.105Z,5.40
2019-03-17T07:56:38.093Z,5.38
2019-03-17T07:57:38.098Z,5.35
2019-03-17T07:58:38.107Z,5.30
2019-03-17T07:59:38.077Z,5.35
2019-03-17T08:00:38.077Z,5.32
2019-03-17T08:01:38.081Z,5.26
2019-03-17T08:02:38.036Z,5.33
2019-03-17T08:03:38.054Z,5.35
2019-03-17T08:04:42.978Z,5.37
2019-03-17T08:05:38.996Z,5.35
2019-03-17T08:06:37.991Z,5.38
2019-03-17T08:07:37.983Z,5.42
2019-03-17T08:08:37.999Z,5.41
2019-03-17T08:09:37.958Z,5.42
2019-03-17T08:10:37.988Z,5.41
2019-03-17T08:11:37.943Z,5.40
2019-03-17T08:12:37.920Z,5.37
2019-03-17T08:13:37.916Z,5.33
2019-03-17T08:14:37.900Z,5.38
2019-03-17T08:15:38.040Z,5.41
2019-03-17T08:16:37.897Z,5.42
2019-03-17T08:17:37.867Z,5.42
2019-03-17T08:18:37.859Z,5.41
2019-03-17T08:19:37.853Z,5.40
2019-03-17T08:20:37.871Z,5.52
2019-03-17T08:21:37.829Z,5.48
2019-03-17T08:22:37.824Z,5.51
2019-03-17T08:23:37.813Z,5.49
2019-03-17T08:24:37.798Z,5.58
2019-03-17T08:25:37.788Z,5.55
2019-03-17T08:26:37.835Z,5.56
2019-03-17T08:27:37.829Z,5.65
2019-03-17T08:28:37.753Z,5.56
2019-03-17T08:29:37.754Z,5.69
2019-03-17T08:30:37.739Z,5.67
2019-03-17T08:31:37.735Z,5.63
2019-03-17T08:32:37.709Z,5.63
2019-03-17T08:33:37.714Z,5.63
2019-03-17T08:34:37.686Z,5.77
2019-03-17T08:35:37.693Z,5.74
2019-03-17T08:36:37.713Z,5.69
2019-03-17T08:37:37.662Z,5.73
2019-03-17T08:38:37.650Z,5.77
2019-03-17T08:39:37.767Z,5.83
2019-03-17T08:40:37.645Z,5.84
2019-03-17T08:41:37.889Z,5.87
2019-03-17T08:42:37.601Z,5.80
2019-03-17T08:43:37.603Z,5.90
2019-03-17T08:44:37.588Z,5.93
2019-03-17T08:45:37.570Z,6.02
2019-03-17T08:46:37.567Z,5.98
2019-03-17T08:47:37.592Z,6.08
2019-03-17T08:48:37.541Z,5.99
2019-03-17T08:49:37.526Z,6.05
2019-03-17T08:50:37.527Z,6.01
2019-03-17T08:51:37.588Z,5.99
2019-03-17T08:52:37.498Z,6.08
2019-03-17T08:53:37.499Z,6.11
2019-03-17T08:54:37.478Z,6.19
2019-03-17T08:55:37.471Z,6.13
2019-03-17T08:56:37.464Z,6.11
2019-03-17T08:57:37.441Z,6.16
2019-03-17T08:58:37.473Z,6.21
2019-03-17T08:59:37.422Z,6.17
2019-03-17T09:00:37.412Z,6.14
2019-03-17T09:01:37.393Z,6.14
2019-03-17T09:02:37.378Z,6.11
2019-03-17T09:03:37.382Z,6.19
2019-03-17T09:04:37.395Z,6.11
2019-03-17T09:05:37.380Z,6.20
2019-03-17T09:06:37.338Z,6.19
2019-03-17T09:07:37.332Z,6.25
2019-03-17T09:08:37.326Z,6.20
2019-03-17T09:09:37.317Z,6.11
2019-03-17T09:10:37.326Z,6.16
2019-03-17T09:11:37.287Z,6.16
2019-03-17T09:12:37.272Z,6.21
2019-03-17T09:13:37.295Z,6.20
2019-03-17T09:14:37.260Z,6.24
2019-03-17T09:15:37.246Z,6.35
2019-03-17T09:16:37.266Z,6.25
2019-03-17T09:17:37.226Z,6.32
2019-03-17T09:18:37.222Z,6.21
2019-03-17T09:19:37.206Z,6.28
2019-03-17T09:20:37.189Z,6.32
2019-03-17T09:21:37.203Z,6.35
2019-03-17T09:22:37.165Z,6.36
2019-03-17T09:23:37.153Z,6.40
2019-03-17T09:24:37.148Z,6.32
2019-03-17T09:25:37.138Z,6.38
2019-03-17T09:26:37.136Z,6.40
2019-03-17T09:27:37.140Z,6.36
2019-03-17T09:28:37.098Z,6.38
2019-03-17T09:29:37.091Z,6.33
2019-03-17T09:30:37.075Z,6.32
2019-03-17T09:31:37.080Z,6.40
2019-03-17T09:32:37.059Z,6.35
2019-03-17T09:33:37.068Z,6.30
2019-03-17T09:34:37.036Z,6.35
2019-03-17T09:35:37.031Z,6.32
2019-03-17T09:36:37.022Z,6.36
2019-03-17T09:37:37.027Z,6.32
2019-03-17T09:38:46.750Z,6.30
2019-03-17T09:39:37.980Z,6.27
2019-03-17T09:40:36.972Z,6.33
2019-03-17T09:41:36.956Z,6.27
2019-03-17T09:42:36.955Z,6.35
2019-03-17T09:43:36.950Z,6.36
2019-03-17T09:44:36.957Z,6.36
2019-03-17T09:45:36.911Z,6.46
2019-03-17T09:46:36.911Z,6.36
2019-03-17T09:47:36.892Z,6.46
2019-03-17T09:48:36.910Z,6.38
2019-03-17T09:49:36.910Z,6.39
2019-03-17T09:50:36.884Z,6.45
2019-03-17T09:51:36.866Z,6.39
2019-03-17T09:52:36.842Z,6.36
2019-03-17T09:53:36.830Z,6.36
2019-03-17T09:54:36.821Z,6.40
2019-03-17T09:55:36.839Z,6.43
2019-03-17T09:56:36.807Z,6.51
2019-03-17T09:57:36.816Z,6.39
2019-03-17T09:58:36.804Z,6.35
2019-03-17T09:59:36.762Z,6.36
2019-03-17T10:00:36.766Z,6.39
2019-03-17T10:01:36.798Z,6.33
2019-03-17T10:02:36.775Z,6.43
2019-03-17T10:03:36.749Z,6.38
2019-03-17T10:04:36.709Z,6.39
2019-03-17T10:05:36.716Z,6.39
2019-03-17T10:06:36.688Z,6.39
2019-03-17T10:07:36.707Z,6.39
2019-03-17T10:08:36.828Z,6.35
2019-03-17T10:09:36.673Z,6.46
2019-03-17T10:10:36.683Z,6.51
2019-03-17T10:11:36.634Z,6.43
2019-03-17T10:12:36.624Z,6.50
2019-03-17T10:13:36.679Z,6.45
2019-03-17T10:14:36.605Z,6.43
2019-03-17T10:15:36.597Z,6.54
2019-03-17T10:16:36.586Z,6.57
2019-03-17T10:17:36.592Z,6.57
2019-03-17T10:18:36.590Z,6.65
2019-03-17T10:19:36.559Z,6.63
2019-03-17T10:20:36.538Z,6.63
2019-03-17T10:21:36.538Z,6.68
2019-03-17T10:22:36.518Z,6.69
2019-03-17T10:23:36.529Z,6.69
2019-03-17T10:24:36.501Z,6.75
2019-03-17T10:25:36.502Z,6.90
2019-03-17T10:26:36.479Z,6.81
2019-03-17T10:27:36.511Z,6.90
2019-03-17T10:28:36.495Z,6.83
2019-03-17T10:29:36.455Z,6.87
2019-03-17T10:30:36.435Z,6.79
2019-03-17T10:31:36.451Z,6.81
2019-03-17T10:32:36.419Z,6.83
2019-03-17T10:33:36.407Z,6.79
2019-03-17T10:34:36.414Z,6.93
2019-03-17T10:35:36.383Z,7.01
2019-03-17T10:36:36.374Z,7.08
2019-03-17T10:37:36.381Z,7.04
2019-03-17T10:38:36.386Z,7.15
2019-03-17T10:39:36.339Z,7.12
2019-03-17T10:40:36.351Z,7.09
2019-03-17T10:41:36.314Z,6.99
2019-03-17T10:42:36.344Z,7.08
2019-03-17T10:43:36.323Z,7.01
2019-03-17T10:44:36.274Z,7.16
2019-03-17T10:45:36.282Z,7.16
2019-03-17T10:46:36.257Z,7.23
2019-03-17T10:47:36.252Z,7.19
2019-03-17T10:48:36.265Z,7.16
2019-03-17T10:49:36.230Z,7.24
2019-03-17T10:50:48.730Z,7.26
2019-03-17T10:51:37.198Z,7.18
2019-03-17T10:52:36.192Z,7.33
2019-03-17T10:53:36.186Z,7.26
2019-03-17T10:54:36.189Z,7.36
2019-03-17T10:55:36.200Z,7.34
2019-03-17T10:56:36.148Z,7.37
2019-03-17T10:57:36.177Z,7.36
2019-03-17T10:58:36.123Z,7.37
2019-03-17T10:59:36.123Z,7.39
2019-03-17T11:00:36.487Z,7.37
2019-03-17T11:01:36.096Z,7.33
2019-03-17T11:02:36.078Z,7.15
2019-03-17T11:03:36.074Z,7.21
2019-03-17T11:04:36.054Z,7.23
2019-03-17T11:05:36.053Z,7.21
2019-03-17T11:06:36.062Z,7.24
2019-03-17T11:07:36.028Z,7.29
2019-03-17T11:08:36.011Z,7.37
2019-03-17T11:09:36.012Z,7.33
2019-03-17T11:10:36.006Z,7.42
2019-03-17T11:11:35.984Z,7.41
2019-03-17T11:12:36.000Z,7.52
2019-03-17T11:13:35.966Z,7.44
2019-03-17T11:14:35.949Z,7.39
2019-03-17T11:15:35.938Z,7.42
2019-03-17T11:16:35.928Z,7.60
2019-03-17T11:17:35.936Z,7.63
2019-03-17T11:18:35.908Z,7.79
2019-03-17T11:19:35.900Z,7.84
2019-03-17T11:20:35.884Z,7.79
2019-03-17T11:21:35.887Z,7.69
2019-03-17T11:22:35.857Z,7.62
2019-03-17T11:23:35.914Z,7.60
2019-03-17T11:24:35.844Z,7.58
2019-03-17T11:25:35.827Z,7.52
2019-03-17T11:26:35.819Z,7.51
2019-03-17T11:27:35.827Z,7.48
2019-03-17T11:28:35.829Z,7.45
2019-03-17T11:29:35.802Z,7.45
2019-03-17T11:30:35.836Z,7.54
2019-03-17T11:31:35.838Z,7.47
2019-03-17T11:32:36.509Z,7.36
2019-03-17T11:33:35.747Z,7.30
2019-03-17T11:34:35.750Z,7.41
2019-03-17T11:35:36.529Z,7.50
2019-03-17T11:36:35.700Z,7.33
2019-03-17T11:37:35.690Z,7.45
2019-03-17T11:38:35.686Z,7.39
2019-03-17T11:39:38.034Z,7.52
2019-03-17T11:40:35.706Z,7.67
2019-03-17T11:41:35.654Z,7.69
2019-03-17T11:42:35.640Z,7.71
2019-03-17T11:43:35.626Z,7.73
2019-03-17T11:44:35.731Z,7.84
2019-03-17T11:45:35.616Z,7.79
2019-03-17T11:46:35.654Z,7.89
2019-03-17T11:47:35.588Z,7.92
2019-03-17T11:48:35.576Z,7.82
2019-03-17T11:49:35.573Z,7.94
2019-03-17T11:50:35.563Z,7.94
2019-03-17T11:51:35.563Z,7.89
2019-03-17T11:52:35.555Z,7.77
2019-03-17T11:53:35.515Z,7.81
2019-03-17T11:54:35.509Z,7.76
2019-03-17T11:55:35.534Z,7.76
2019-03-17T11:56:35.494Z,7.67
2019-03-17T11:57:35.495Z,7.34
2019-03-17T11:58:35.483Z,7.21
2019-03-17T11:59:35.454Z,7.21
2019-03-17T12:00:35.467Z,7.11
2019-03-17T12:01:35.427Z,7.01
2019-03-17T12:02:35.446Z,6.99
2019-03-17T12:03:35.420Z,6.99
2019-03-17T12:04:35.422Z,6.97
2019-03-17T12:05:35.399Z,6.99
2019-03-17T12:06:35.374Z,7.04
2019-03-17T12:07:35.374Z,7.16
2019-03-17T12:08:35.378Z,7.32
2019-03-17T12:09:35.352Z,7.34
2019-03-17T12:10:35.331Z,7.34
2019-03-17T12:11:35.324Z,7.47
2019-03-17T12:12:35.319Z,7.42
2019-03-17T12:13:35.340Z,7.42
2019-03-17T12:14:35.325Z,7.37
2019-03-17T12:15:35.311Z,7.44
2019-03-17T12:16:35.275Z,7.32
2019-03-17T12:17:35.266Z,7.30
2019-03-17T12:18:35.250Z,7.32
2019-03-17T12:19:35.281Z,7.37
2019-03-17T12:20:35.232Z,7.27
2019-03-17T12:21:35.213Z,7.27
2019-03-17T12:22:35.212Z,7.23
2019-03-17T12:23:35.198Z,7.26
2019-03-17T12:24:35.190Z,7.27
2019-03-17T12:25:35.221Z,7.19
2019-03-17T12:26:35.189Z,7.16
2019-03-17T12:27:35.144Z,7.18
2019-03-17T12:28:35.133Z,7.33
2019-03-17T12:29:35.127Z,7.32
2019-03-17T12:30:35.208Z,7.34
2019-03-17T12:31:35.126Z,7.23
2019-03-17T12:32:35.139Z,7.21
2019-03-17T12:33:35.167Z,7.16
2019-03-17T12:34:35.066Z,7.16
2019-03-17T12:35:35.064Z,7.19
2019-03-17T12:36:35.153Z,7.18
2019-03-17T12:37:35.064Z,7.05
2019-03-17T12:38:35.078Z,7.09
2019-03-17T12:39:35.008Z,7.05
2019-03-17T12:40:35.008Z,7.00
2019-03-17T12:41:34.997Z,6.94
2019-03-17T12:42:35.012Z,6.97
2019-03-17T12:43:34.980Z,6.81
2019-03-17T12:44:34.964Z,6.91
2019-03-17T12:45:34.957Z,7.00
2019-03-17T12:46:34.956Z,7.05
2019-03-17T12:47:37.222Z,7.15
2019-03-17T12:48:34.951Z,7.16
2019-03-17T12:49:34.958Z,7.21
2019-03-17T12:50:34.922Z,7.26
2019-03-17T12:51:34.877Z,7.26
2019-03-17T12:52:34.870Z,7.34
2019-03-17T12:53:34.872Z,7.41
2019-03-17T12:54:34.873Z,7.47
2019-03-17T12:55:34.841Z,7.50
2019-03-17T12:56:34.899Z,7.63
2019-03-17T12:57:34.820Z,7.69
2019-03-17T12:58:34.841Z,7.62
2019-03-17T12:59:34.820Z,7.85
2019-03-17T13:00:34.788Z,7.95
2019-03-17T13:01:34.773Z,8.02
2019-03-17T13:02:34.796Z,8.03
2019-03-17T13:03:34.748Z,8.17
2019-03-17T13:04:34.737Z,8.18
2019-03-17T13:05:34.759Z,8.31
2019-03-17T13:06:34.760Z,8.37
2019-03-17T13:07:34.712Z,8.40
2019-03-17T13:08:34.694Z,8.43
2019-03-17T13:09:34.687Z,8.58
2019-03-17T13:10:34.677Z,8.49
2019-03-17T13:11:34.683Z,8.42
2019-03-17T13:12:34.661Z,8.64
2019-03-17T13:13:34.637Z,8.78
2019-03-17T13:14:34.625Z,8.70
2019-03-17T13:15:34.682Z,8.75
2019-03-17T13:16:34.610Z,8.80
2019-03-17T13:17:34.602Z,8.93
2019-03-17T13:18:34.592Z,8.97